sensor_id;sensor_type;location;lat;lon;timestamp;temperature;humidity
53645;DHT22;39547;45.554;12.068;2023-05-09T00:03:58;16.90;76.40
53645;DHT22;39547;45.554;12.068;2023-05-09T00:10:00;16.90;76.40
53645;DHT22;39547;45.554;12.068;2023-05-09T00:16:01;16.80;76.70
53645;DHT22;39547;45.554;12.068;2023-05-09T00:22:03;16.80;76.90
53645;DHT22;39547;45.554;12.068;2023-05-09T00:28:05;16.80;76.90
53645;DHT22;39547;45.554;12.068;2023-05-09T00:34:06;16.70;77.00
53645;DHT22;39547;45.554;12.068;2023-05-09T00:40:08;16.70;77.10
53645;DHT22;39547;45.554;12.068;2023-05-09T00:46:10;16.70;77.20
53645;DHT22;39547;45.554;12.068;2023-05-09T00:52:11;16.60;77.20
53645;DHT22;39547;45.554;12.068;2023-05-09T00:58:13;16.50;77.20
53645;DHT22;39547;45.554;12.068;2023-05-09T01:04:15;16.50;77.30
53645;DHT22;39547;45.554;12.068;2023-05-09T01:23:00;16.20;77.70
53645;DHT22;39547;45.554;12.068;2023-05-09T01:29:43;16.20;77.70
53645;DHT22;39547;45.554;12.068;2023-05-09T01:35:56;16.00;77.90
53645;DHT22;39547;45.554;12.068;2023-05-09T01:42:03;15.90;77.80
53645;DHT22;39547;45.554;12.068;2023-05-09T01:48:07;15.90;78.00
53645;DHT22;39547;45.554;12.068;2023-05-09T01:54:11;15.90;78.00
53645;DHT22;39547;45.554;12.068;2023-05-09T02:00:13;16.00;78.10
53645;DHT22;39547;45.554;12.068;2023-05-09T02:06:16;15.90;78.20
53645;DHT22;39547;45.554;12.068;2023-05-09T02:12:18;15.80;78.00
53645;DHT22;39547;45.554;12.068;2023-05-09T02:18:20;15.80;78.00
53645;DHT22;39547;45.554;12.068;2023-05-09T02:24:21;15.90;78.10
53645;DHT22;39547;45.554;12.068;2023-05-09T02:30:25;15.90;78.30
53645;DHT22;39547;45.554;12.068;2023-05-09T02:36:31;15.90;78.30
53645;DHT22;39547;45.554;12.068;2023-05-09T02:42:33;15.90;78.30
53645;DHT22;39547;45.554;12.068;2023-05-09T02:48:35;15.80;78.10
53645;DHT22;39547;45.554;12.068;2023-05-09T02:54:37;15.70;78.00
53645;DHT22;39547;45.554;12.068;2023-05-09T03:00:39;15.60;77.90
53645;DHT22;39547;45.554;12.068;2023-05-09T03:06:41;15.60;78.00
53645;DHT22;39547;45.554;12.068;2023-05-09T03:12:42;15.50;78.00
53645;DHT22;39547;45.554;12.068;2023-05-09T03:18:44;15.60;78.10
53645;DHT22;39547;45.554;12.068;2023-05-09T03:24:46;15.60;78.10
53645;DHT22;39547;45.554;12.068;2023-05-09T03:30:48;15.50;78.10
53645;DHT22;39547;45.554;12.068;2023-05-09T03:36:52;15.50;78.30
53645;DHT22;39547;45.554;12.068;2023-05-09T03:42:53;15.40;78.40
53645;DHT22;39547;45.554;12.068;2023-05-09T03:48:54;15.30;78.50
53645;DHT22;39547;45.554;12.068;2023-05-09T03:54:56;15.20;78.80
53645;DHT22;39547;45.554;12.068;2023-05-09T04:00:58;15.20;79.10
53645;DHT22;39547;45.554;12.068;2023-05-09T04:07:00;15.20;79.00
53645;DHT22;39547;45.554;12.068;2023-05-09T04:13:01;15.10;79.10
53645;DHT22;39547;45.554;12.068;2023-05-09T04:19:04;15.10;79.30
53645;DHT22;39547;45.554;12.068;2023-05-09T04:25:07;15.10;79.30
53645;DHT22;39547;45.554;12.068;2023-05-09T04:31:12;15.20;79.50
53645;DHT22;39547;45.554;12.068;2023-05-09T04:37:17;15.20;79.60
53645;DHT22;39547;45.554;12.068;2023-05-09T04:43:19;15.20;79.70
53645;DHT22;39547;45.554;12.068;2023-05-09T04:49:21;15.20;79.80
53645;DHT22;39547;45.554;12.068;2023-05-09T04:55:22;15.30;79.70
53645;DHT22;39547;45.554;12.068;2023-05-09T05:01:25;15.40;79.60
53645;DHT22;39547;45.554;12.068;2023-05-09T05:07:27;15.50;79.60
53645;DHT22;39547;45.554;12.068;2023-05-09T05:13:29;15.70;79.90
53645;DHT22;39547;45.554;12.068;2023-05-09T05:19:34;15.80;79.90
53645;DHT22;39547;45.554;12.068;2023-05-09T05:25:37;16.00;79.90
53645;DHT22;39547;45.554;12.068;2023-05-09T05:31:38;16.10;79.70
53645;DHT22;39547;45.554;12.068;2023-05-09T05:37:40;16.30;79.40
53645;DHT22;39547;45.554;12.068;2023-05-09T05:43:42;16.50;79.20
53645;DHT22;39547;45.554;12.068;2023-05-09T05:49:44;16.60;79.00
53645;DHT22;39547;45.554;12.068;2023-05-09T05:55:45;16.70;78.40
53645;DHT22;39547;45.554;12.068;2023-05-09T06:01:48;16.80;78.20
53645;DHT22;39547;45.554;12.068;2023-05-09T06:07:49;17.00;77.90
53645;DHT22;39547;45.554;12.068;2023-05-09T06:13:51;17.10;77.80
53645;DHT22;39547;45.554;12.068;2023-05-09T06:19:52;17.30;77.40
53645;DHT22;39547;45.554;12.068;2023-05-09T06:25:54;17.40;77.10
53645;DHT22;39547;45.554;12.068;2023-05-09T06:31:55;17.50;76.50
53645;DHT22;39547;45.554;12.068;2023-05-09T06:37:57;17.70;76.20
53645;DHT22;39547;45.554;12.068;2023-05-09T06:43:58;17.80;75.60
53645;DHT22;39547;45.554;12.068;2023-05-09T06:50:02;18.00;75.10
53645;DHT22;39547;45.554;12.068;2023-05-09T06:56:04;18.00;74.30
53645;DHT22;39547;45.554;12.068;2023-05-09T07:02:06;17.90;74.40
53645;DHT22;39547;45.554;12.068;2023-05-09T07:08:08;17.80;73.40
53645;DHT22;39547;45.554;12.068;2023-05-09T07:14:09;17.90;73.20
53645;DHT22;39547;45.554;12.068;2023-05-09T07:20:11;18.20;72.80
53645;DHT22;39547;45.554;12.068;2023-05-09T07:26:12;18.60;71.30
53645;DHT22;39547;45.554;12.068;2023-05-09T07:32:13;18.80;69.70
53645;DHT22;39547;45.554;12.068;2023-05-09T07:38:15;19.20;68.70
53645;DHT22;39547;45.554;12.068;2023-05-09T07:44:17;19.30;67.80
53645;DHT22;39547;45.554;12.068;2023-05-09T07:50:18;19.50;67.80
53645;DHT22;39547;45.554;12.068;2023-05-09T07:56:19;19.70;66.30
53645;DHT22;39547;45.554;12.068;2023-05-09T08:02:21;19.70;65.00
53645;DHT22;39547;45.554;12.068;2023-05-09T08:08:22;19.80;64.00
53645;DHT22;39547;45.554;12.068;2023-05-09T08:14:24;20.10;63.70
53645;DHT22;39547;45.554;12.068;2023-05-09T08:20:26;20.20;62.80
53645;DHT22;39547;45.554;12.068;2023-05-09T08:26:27;20.30;62.20
53645;DHT22;39547;45.554;12.068;2023-05-09T08:32:29;20.50;62.20
53645;DHT22;39547;45.554;12.068;2023-05-09T08:38:30;20.50;62.00
53645;DHT22;39547;45.554;12.068;2023-05-09T08:44:31;20.50;61.40
53645;DHT22;39547;45.554;12.068;2023-05-09T08:50:33;20.70;62.10
53645;DHT22;39547;45.554;12.068;2023-05-09T08:56:35;20.80;61.80
53645;DHT22;39547;45.554;12.068;2023-05-09T09:02:39;20.90;60.90
53645;DHT22;39547;45.554;12.068;2023-05-09T09:08:43;21.00;61.40
53645;DHT22;39547;45.554;12.068;2023-05-09T09:14:48;21.20;60.80
53645;DHT22;39547;45.554;12.068;2023-05-09T09:20:58;21.40;61.00
53645;DHT22;39547;45.554;12.068;2023-05-09T09:27:04;21.60;60.70
53645;DHT22;39547;45.554;12.068;2023-05-09T09:33:06;21.80;61.00
53645;DHT22;39547;45.554;12.068;2023-05-09T09:39:07;21.80;60.80
53645;DHT22;39547;45.554;12.068;2023-05-09T09:45:17;22.00;59.90
53645;DHT22;39547;45.554;12.068;2023-05-09T09:51:19;22.10;59.90
53645;DHT22;39547;45.554;12.068;2023-05-09T09:57:37;22.20;59.60
53645;DHT22;39547;45.554;12.068;2023-05-09T10:03:44;22.30;57.60
53645;DHT22;39547;45.554;12.068;2023-05-09T10:09:46;22.50;58.40
53645;DHT22;39547;45.554;12.068;2023-05-09T10:15:49;22.60;57.30
53645;DHT22;39547;45.554;12.068;2023-05-09T10:21:53;22.80;55.90
53645;DHT22;39547;45.554;12.068;2023-05-09T10:27:59;22.90;56.10
53645;DHT22;39547;45.554;12.068;2023-05-09T10:34:04;23.00;55.40
53645;DHT22;39547;45.554;12.068;2023-05-09T10:40:10;23.30;55.90
53645;DHT22;39547;45.554;12.068;2023-05-09T10:46:15;23.30;55.40
53645;DHT22;39547;45.554;12.068;2023-05-09T10:52:20;23.30;55.50
53645;DHT22;39547;45.554;12.068;2023-05-09T10:58:28;23.50;55.00
53645;DHT22;39547;45.554;12.068;2023-05-09T11:04:31;23.90;54.60
53645;DHT22;39547;45.554;12.068;2023-05-09T11:10:41;24.10;52.50
53645;DHT22;39547;45.554;12.068;2023-05-09T11:17:00;24.10;53.30
53645;DHT22;39547;45.554;12.068;2023-05-09T11:23:05;24.30;52.90
53645;DHT22;39547;45.554;12.068;2023-05-09T11:29:08;24.60;53.70
53645;DHT22;39547;45.554;12.068;2023-05-09T11:35:15;24.90;52.70
53645;DHT22;39547;45.554;12.068;2023-05-09T11:41:17;24.90;52.00
53645;DHT22;39547;45.554;12.068;2023-05-09T11:47:19;24.80;51.40
53645;DHT22;39547;45.554;12.068;2023-05-09T11:53:23;24.70;51.60
53645;DHT22;39547;45.554;12.068;2023-05-09T11:59:26;25.30;51.00
53645;DHT22;39547;45.554;12.068;2023-05-09T12:05:28;26.00;50.60
53645;DHT22;39547;45.554;12.068;2023-05-09T12:11:29;26.70;50.00
53645;DHT22;39547;45.554;12.068;2023-05-09T12:17:32;27.30;49.30
53645;DHT22;39547;45.554;12.068;2023-05-09T12:23:34;27.60;48.30
53645;DHT22;39547;45.554;12.068;2023-05-09T12:29:36;28.10;46.90
53645;DHT22;39547;45.554;12.068;2023-05-09T12:35:39;28.60;46.10
53645;DHT22;39547;45.554;12.068;2023-05-09T12:41:44;28.70;44.80
53645;DHT22;39547;45.554;12.068;2023-05-09T12:47:50;28.40;44.80
53645;DHT22;39547;45.554;12.068;2023-05-09T12:53:52;29.00;43.90
53645;DHT22;39547;45.554;12.068;2023-05-09T12:59:57;29.80;42.50
53645;DHT22;39547;45.554;12.068;2023-05-09T13:06:00;30.40;40.60
53645;DHT22;39547;45.554;12.068;2023-05-09T13:12:02;31.00;40.70
53645;DHT22;39547;45.554;12.068;2023-05-09T13:18:04;31.40;39.30
53645;DHT22;39547;45.554;12.068;2023-05-09T13:24:06;31.70;37.60
53645;DHT22;39547;45.554;12.068;2023-05-09T13:30:07;32.20;37.30
53645;DHT22;39547;45.554;12.068;2023-05-09T13:36:09;32.30;36.60
53645;DHT22;39547;45.554;12.068;2023-05-09T13:42:10;32.40;36.40
53645;DHT22;39547;45.554;12.068;2023-05-09T13:48:12;32.90;34.60
53645;DHT22;39547;45.554;12.068;2023-05-09T13:54:13;33.30;34.40
53645;DHT22;39547;45.554;12.068;2023-05-09T14:00:17;33.50;33.90
53645;DHT22;39547;45.554;12.068;2023-05-09T14:06:19;33.50;33.40
53645;DHT22;39547;45.554;12.068;2023-05-09T14:12:20;32.20;34.40
53645;DHT22;39547;45.554;12.068;2023-05-09T14:18:22;32.40;34.30
53645;DHT22;39547;45.554;12.068;2023-05-09T14:24:23;32.50;33.50
53645;DHT22;39547;45.554;12.068;2023-05-09T14:30:25;33.00;33.10
53645;DHT22;39547;45.554;12.068;2023-05-09T14:36:28;33.60;32.70
53645;DHT22;39547;45.554;12.068;2023-05-09T14:42:29;33.80;32.00
53645;DHT22;39547;45.554;12.068;2023-05-09T14:48:31;33.80;31.70
53645;DHT22;39547;45.554;12.068;2023-05-09T14:54:33;33.90;31.50
53645;DHT22;39547;45.554;12.068;2023-05-09T15:00:35;34.00;30.90
53645;DHT22;39547;45.554;12.068;2023-05-09T15:06:37;34.00;30.70
53645;DHT22;39547;45.554;12.068;2023-05-09T15:12:38;33.30;31.00
53645;DHT22;39547;45.554;12.068;2023-05-09T15:18:39;31.10;32.80
53645;DHT22;39547;45.554;12.068;2023-05-09T15:24:45;29.10;35.40
53645;DHT22;39547;45.554;12.068;2023-05-09T15:30:47;27.50;38.10
53645;DHT22;39547;45.554;12.068;2023-05-09T15:36:48;26.60;39.50
53645;DHT22;39547;45.554;12.068;2023-05-09T15:42:50;25.80;41.30
53645;DHT22;39547;45.554;12.068;2023-05-09T15:48:51;25.30;42.10
53645;DHT22;39547;45.554;12.068;2023-05-09T15:54:54;24.80;43.30
53645;DHT22;39547;45.554;12.068;2023-05-09T16:00:55;24.50;43.80
53645;DHT22;39547;45.554;12.068;2023-05-09T16:06:57;24.20;44.10
53645;DHT22;39547;45.554;12.068;2023-05-09T16:12:58;24.00;45.50
53645;DHT22;39547;45.554;12.068;2023-05-09T16:19:00;23.80;45.50
53645;DHT22;39547;45.554;12.068;2023-05-09T16:25:03;23.50;45.40
53645;DHT22;39547;45.554;12.068;2023-05-09T16:31:05;23.40;46.20
53645;DHT22;39547;45.554;12.068;2023-05-09T16:37:08;23.20;46.10
53645;DHT22;39547;45.554;12.068;2023-05-09T16:43:09;23.00;46.40
53645;DHT22;39547;45.554;12.068;2023-05-09T16:49:11;22.80;47.00
53645;DHT22;39547;45.554;12.068;2023-05-09T16:55:15;22.70;47.60
53645;DHT22;39547;45.554;12.068;2023-05-09T17:01:16;22.40;47.10
53645;DHT22;39547;45.554;12.068;2023-05-09T17:07:17;22.20;47.40
53645;DHT22;39547;45.554;12.068;2023-05-09T17:13:19;22.00;47.70
53645;DHT22;39547;45.554;12.068;2023-05-09T17:19:20;21.80;48.40
53645;DHT22;39547;45.554;12.068;2023-05-09T17:25:23;21.60;48.70
53645;DHT22;39547;45.554;12.068;2023-05-09T17:31:24;21.40;49.40
53645;DHT22;39547;45.554;12.068;2023-05-09T17:37:26;21.20;49.80
53645;DHT22;39547;45.554;12.068;2023-05-09T17:43:28;21.10;50.10
53645;DHT22;39547;45.554;12.068;2023-05-09T17:49:30;21.00;50.50
53645;DHT22;39547;45.554;12.068;2023-05-09T17:55:31;20.80;51.00
53645;DHT22;39547;45.554;12.068;2023-05-09T18:01:33;20.70;51.50
53645;DHT22;39547;45.554;12.068;2023-05-09T18:07:34;20.60;51.60
53645;DHT22;39547;45.554;12.068;2023-05-09T18:13:36;20.50;51.90
53645;DHT22;39547;45.554;12.068;2023-05-09T18:19:37;20.40;52.30
53645;DHT22;39547;45.554;12.068;2023-05-09T18:25:42;20.20;52.80
53645;DHT22;39547;45.554;12.068;2023-05-09T18:31:43;20.20;53.20
53645;DHT22;39547;45.554;12.068;2023-05-09T18:37:45;20.00;53.80
53645;DHT22;39547;45.554;12.068;2023-05-09T18:43:46;19.90;54.10
53645;DHT22;39547;45.554;12.068;2023-05-09T18:49:48;19.80;54.70
53645;DHT22;39547;45.554;12.068;2023-05-09T18:55:49;19.70;55.00
53645;DHT22;39547;45.554;12.068;2023-05-09T19:01:51;19.60;55.10
53645;DHT22;39547;45.554;12.068;2023-05-09T19:07:52;19.40;55.90
53645;DHT22;39547;45.554;12.068;2023-05-09T19:13:54;19.40;56.30
53645;DHT22;39547;45.554;12.068;2023-05-09T19:19:55;19.30;56.40
53645;DHT22;39547;45.554;12.068;2023-05-09T19:25:57;19.30;56.70
53645;DHT22;39547;45.554;12.068;2023-05-09T19:31:58;19.30;56.90
53645;DHT22;39547;45.554;12.068;2023-05-09T19:38:00;19.30;57.60
53645;DHT22;39547;45.554;12.068;2023-05-09T19:44:02;19.20;58.20
53645;DHT22;39547;45.554;12.068;2023-05-09T19:50:04;19.20;58.70
53645;DHT22;39547;45.554;12.068;2023-05-09T19:56:07;19.10;58.70
53645;DHT22;39547;45.554;12.068;2023-05-09T20:02:08;19.10;58.90
53645;DHT22;39547;45.554;12.068;2023-05-09T20:08:10;19.00;59.10
53645;DHT22;39547;45.554;12.068;2023-05-09T20:14:11;19.00;59.50
53645;DHT22;39547;45.554;12.068;2023-05-09T20:20:12;19.00;60.30
53645;DHT22;39547;45.554;12.068;2023-05-09T20:26:14;18.90;60.50
53645;DHT22;39547;45.554;12.068;2023-05-09T20:32:15;18.90;60.90
53645;DHT22;39547;45.554;12.068;2023-05-09T20:38:17;18.80;61.00
53645;DHT22;39547;45.554;12.068;2023-05-09T20:44:18;18.90;61.30
53645;DHT22;39547;45.554;12.068;2023-05-09T20:50:20;18.80;61.50
53645;DHT22;39547;45.554;12.068;2023-05-09T20:56:21;18.90;61.90
53645;DHT22;39547;45.554;12.068;2023-05-09T21:02:23;18.80;62.50
53645;DHT22;39547;45.554;12.068;2023-05-09T21:08:24;18.70;62.80
53645;DHT22;39547;45.554;12.068;2023-05-09T21:14:26;18.70;63.30
53645;DHT22;39547;45.554;12.068;2023-05-09T21:20:27;18.60;63.90
53645;DHT22;39547;45.554;12.068;2023-05-09T21:26:29;18.60;63.90
53645;DHT22;39547;45.554;12.068;2023-05-09T21:32:31;18.60;63.70
53645;DHT22;39547;45.554;12.068;2023-05-09T21:38:32;18.50;64.00
53645;DHT22;39547;45.554;12.068;2023-05-09T21:44:34;18.50;64.40
53645;DHT22;39547;45.554;12.068;2023-05-09T21:50:36;18.40;65.90
53645;DHT22;39547;45.554;12.068;2023-05-09T21:56:37;18.40;65.40
53645;DHT22;39547;45.554;12.068;2023-05-09T22:02:39;18.30;65.70
53645;DHT22;39547;45.554;12.068;2023-05-09T22:08:42;18.30;65.50
53645;DHT22;39547;45.554;12.068;2023-05-09T22:14:44;18.30;65.10
53645;DHT22;39547;45.554;12.068;2023-05-09T22:20:45;18.30;64.70
53645;DHT22;39547;45.554;12.068;2023-05-09T22:26:47;18.30;63.80
53645;DHT22;39547;45.554;12.068;2023-05-09T22:32:48;18.20;63.10
53645;DHT22;39547;45.554;12.068;2023-05-09T22:38:49;18.20;62.50
53645;DHT22;39547;45.554;12.068;2023-05-09T22:44:51;18.20;62.20
53645;DHT22;39547;45.554;12.068;2023-05-09T22:50:53;18.20;61.70
53645;DHT22;39547;45.554;12.068;2023-05-09T22:56:54;18.10;61.40
53645;DHT22;39547;45.554;12.068;2023-05-09T23:02:56;18.00;61.40
53645;DHT22;39547;45.554;12.068;2023-05-09T23:08:59;18.00;61.40
53645;DHT22;39547;45.554;12.068;2023-05-09T23:15:00;17.90;61.10
53645;DHT22;39547;45.554;12.068;2023-05-09T23:21:03;17.90;60.80
53645;DHT22;39547;45.554;12.068;2023-05-09T23:27:05;17.80;60.80
53645;DHT22;39547;45.554;12.068;2023-05-09T23:33:06;17.80;60.50
53645;DHT22;39547;45.554;12.068;2023-05-09T23:39:07;17.80;60.00
53645;DHT22;39547;45.554;12.068;2023-05-09T23:45:09;17.70;60.20
53645;DHT22;39547;45.554;12.068;2023-05-09T23:51:11;17.70;60.40
53645;DHT22;39547;45.554;12.068;2023-05-09T23:57:13;17.70;60.40
